Time;durP1;ratioP1;P1;durP2;ratioP2;P2;SDS_P1;SDS_P2;PMS_P1;PMS_P2;Temp;Humidity;BMP_temperature;BMP_pressure;BME280_temperature;BME280_humidity;BME280_pressure;Samples;Min_cycle;Max_cycle;Signal;HPM_P1;HPM_P2
2023/05/25 00:00:32;;;;;;;;;;;;;;;13.12;53.44;101404.19;4987186;28;6791;-73
2023/05/25 00:02:58;;;;;;;;;;;;;;;13.08;53.40;101400.56;4989982;28;7238;-72
2023/05/25 00:05:26;;;;;;;;;;;;;;;13.08;53.77;101408.28;4992493;28;6987;-73
2023/05/25 00:07:54;;;;;;;;;;;;;;;13.05;53.23;101408.13;4948208;28;7343;-73
2023/05/25 00:10:20;;;;;;;;;;;;;;;13.02;53.94;101413.06;4965269;28;7694;-74
2023/05/25 00:12:45;;;;;;;;;;;;;;;12.96;53.79;101410.19;4964909;28;8380;-72
2023/05/25 00:15:11;;;;;;;;;;;;;;;12.92;54.18;101404.84;4986253;28;6914;-72
2023/05/25 00:17:37;;;;;;;;;;;;;;;12.90;54.42;101406.47;4958696;28;7156;-74
2023/05/25 00:20:06;;;;;;;;;;;;;;;12.89;53.59;101403.81;4973403;28;7285;-74
2023/05/25 00:22:36;;;;;;;;;;;;;;;12.85;53.74;101402.78;4950465;28;6876;-72
2023/05/25 00:25:05;;;;;;;;;;;;;;;12.82;53.66;101402.59;4958215;28;7203;-73
2023/05/25 00:27:31;;;;;;;;;;;;;;;12.77;54.28;101397.19;4961324;28;6814;-73
2023/05/25 00:29:57;;;;;;;;;;;;;;;12.73;54.15;101399.50;4986003;28;7173;-73
2023/05/25 00:32:23;;;;;;;;;;;;;;;12.67;53.66;101391.47;4981964;28;6788;-72
2023/05/25 00:34:49;;;;;;;;;;;;;;;12.62;54.26;101396.38;4974700;28;6981;-73
2023/05/25 00:37:15;;;;;;;;;;;;;;;12.55;53.84;101397.69;4959585;28;6857;-74
2023/05/25 00:39:40;;;;;;;;;;;;;;;12.51;54.24;101395.75;4987540;28;6785;-72
2023/05/25 00:42:07;;;;;;;;;;;;;;;12.46;53.86;101392.06;4954884;28;6840;-73
2023/05/25 00:44:33;;;;;;;;;;;;;;;12.41;54.55;101396.94;4987502;28;6788;-73
2023/05/25 00:47:03;;;;;;;;;;;;;;;12.37;53.97;101389.84;4989947;28;7219;-72
2023/05/25 00:49:34;;;;;;;;;;;;;;;12.32;54.89;101394.72;4980930;28;6824;-72
2023/05/25 00:51:59;;;;;;;;;;;;;;;12.30;54.35;101391.19;4974303;28;7367;-72
2023/05/25 00:54:26;;;;;;;;;;;;;;;12.31;54.38;101398.09;4959826;28;6968;-72
2023/05/25 00:57:01;;;;;;;;;;;;;;;12.30;55.26;101393.75;4954728;28;6800;-73
2023/05/25 00:59:50;;;;;;;;;;;;;;;12.31;54.97;101394.63;4988069;28;6808;-72
2023/05/25 01:02:18;;;;;;;;;;;;;;;12.32;54.68;101399.84;4957657;28;7220;-73
2023/05/25 01:04:51;;;;;;;;;;;;;;;12.35;55.57;101397.44;4946020;28;6982;-73
2023/05/25 01:07:22;;;;;;;;;;;;;;;12.38;55.12;101399.31;4989489;28;6876;-73
2023/05/25 01:09:55;;;;;;;;;;;;;;;12.44;54.88;101398.78;4973276;28;7269;-73
2023/05/25 01:12:22;;;;;;;;;;;;;;;12.47;55.46;101396.41;4989730;28;6896;-72
2023/05/25 01:14:49;;;;;;;;;;;;;;;12.51;55.75;101395.75;4988269;28;6951;-72
2023/05/25 01:17:16;;;;;;;;;;;;;;;12.53;55.62;101395.84;4972620;28;7010;-73
2023/05/25 01:19:44;;;;;;;;;;;;;;;12.53;55.40;101398.41;4974879;28;6830;-73
2023/05/25 01:22:37;;;;;;;;;;;;;;;12.54;55.06;101395.03;4986710;28;7098;-73
2023/05/25 01:25:12;;;;;;;;;;;;;;;12.54;55.64;101400.19;4966490;28;7265;-73
2023/05/25 01:27:58;;;;;;;;;;;;;;;12.54;55.16;101392.47;4962359;28;6800;-73
2023/05/25 01:30:27;;;;;;;;;;;;;;;12.54;55.36;101401.06;4987255;28;6998;-73
2023/05/25 01:32:53;;;;;;;;;;;;;;;12.51;55.46;101403.47;4976468;28;6817;-73
2023/05/25 01:35:20;;;;;;;;;;;;;;;12.47;55.13;101402.41;4956589;28;6796;-72
2023/05/25 01:37:48;;;;;;;;;;;;;;;12.46;55.57;101404.91;4987105;28;7332;-74
2023/05/25 01:40:14;;;;;;;;;;;;;;;12.45;55.72;101408.25;4956230;28;6991;-73
2023/05/25 01:42:40;;;;;;;;;;;;;;;12.44;55.81;101401.34;4987605;28;6985;-73
2023/05/25 01:45:08;;;;;;;;;;;;;;;12.43;56.04;101404.72;4958725;28;7922;-73
2023/05/25 01:47:45;;;;;;;;;;;;;;;12.40;55.63;101404.56;4996185;28;6796;-73
2023/05/25 01:50:37;;;;;;;;;;;;;;;12.35;55.28;101402.59;4965216;28;6788;-72
2023/05/25 01:53:09;;;;;;;;;;;;;;;12.32;55.29;101410.13;4969620;28;6858;-74
2023/05/25 01:55:46;;;;;;;;;;;;;;;12.29;55.80;101406.50;4989566;28;6883;-74
2023/05/25 01:58:14;;;;;;;;;;;;;;;12.24;55.37;101408.81;4974879;28;6996;-73
2023/05/25 02:00:42;;;;;;;;;;;;;;;12.19;55.47;101408.53;4960808;28;6961;-72
2023/05/25 02:03:09;;;;;;;;;;;;;;;12.14;55.13;101409.06;4995588;28;6990;-74
2023/05/25 02:05:35;;;;;;;;;;;;;;;12.07;55.57;101397.56;4993445;28;7083;-74
2023/05/25 02:08:00;;;;;;;;;;;;;;;12.02;55.00;101397.31;4961924;28;6991;-73
2023/05/25 02:10:26;;;;;;;;;;;;;;;11.99;55.04;101402.25;4977541;28;6920;-72
2023/05/25 02:12:52;;;;;;;;;;;;;;;11.99;55.86;101412.50;4978874;28;7703;-73
2023/05/25 02:15:17;;;;;;;;;;;;;;;11.98;55.87;101413.31;4960508;28;6784;-72
2023/05/25 02:17:43;;;;;;;;;;;;;;;11.97;56.20;101416.66;4989891;28;7266;-72
2023/05/25 02:20:10;;;;;;;;;;;;;;;11.97;56.03;101418.34;4961890;28;7040;-72
2023/05/25 02:22:36;;;;;;;;;;;;;;;12.00;56.10;101424.56;4962897;28;6784;-73
2023/05/25 02:25:02;;;;;;;;;;;;;;;12.02;56.16;101420.44;4991198;28;7301;-73
2023/05/25 02:27:28;;;;;;;;;;;;;;;12.05;56.48;101423.16;4961834;28;6915;-72
2023/05/25 02:29:53;;;;;;;;;;;;;;;12.08;56.36;101417.31;4962462;28;6772;-73
2023/05/25 02:32:20;;;;;;;;;;;;;;;12.10;56.40;101415.72;4961400;28;6772;-71
2023/05/25 02:34:46;;;;;;;;;;;;;;;12.11;56.18;101416.63;4982455;28;7025;-72
2023/05/25 02:37:12;;;;;;;;;;;;;;;12.10;56.31;101418.28;4960652;28;6793;-71
2023/05/25 02:39:38;;;;;;;;;;;;;;;12.08;55.92;101418.22;4991119;28;6772;-71
2023/05/25 02:42:04;;;;;;;;;;;;;;;12.07;55.79;101415.56;4964486;28;6815;-72
2023/05/25 02:44:30;;;;;;;;;;;;;;;12.02;55.86;101423.00;4967493;28;7585;-73
2023/05/25 02:46:56;;;;;;;;;;;;;;;11.96;56.12;101417.44;4977261;28;7246;-72
2023/05/25 02:49:22;;;;;;;;;;;;;;;11.92;55.70;101421.50;4962034;28;6865;-71
2023/05/25 02:51:47;;;;;;;;;;;;;;;11.85;55.57;101418.50;4983627;28;6776;-72
2023/05/25 02:54:13;;;;;;;;;;;;;;;11.80;56.15;101426.84;4986465;28;7175;-73
2023/05/25 02:56:38;;;;;;;;;;;;;;;11.75;55.95;101428.22;4941241;28;8815;-73
2023/05/25 02:59:04;;;;;;;;;;;;;;;11.73;55.99;101434.06;4963531;28;6981;-73
2023/05/25 03:01:30;;;;;;;;;;;;;;;11.70;56.11;101434.78;4942487;28;7047;-73
2023/05/25 03:03:56;;;;;;;;;;;;;;;11.66;56.59;101428.59;4987385;28;6795;-73
2023/05/25 03:06:22;;;;;;;;;;;;;;;11.63;56.18;101430.06;4957715;28;8496;-74
2023/05/25 03:08:48;;;;;;;;;;;;;;;11.60;56.12;101432.47;4989079;28;6808;-73
2023/05/25 03:11:14;;;;;;;;;;;;;;;11.59;56.95;101440.94;4983121;28;6792;-73
2023/05/25 03:13:40;;;;;;;;;;;;;;;11.60;56.65;101442.75;4987504;28;7268;-73
2023/05/25 03:16:06;;;;;;;;;;;;;;;11.59;57.16;101441.84;4937623;28;6980;-73
2023/05/25 03:18:31;;;;;;;;;;;;;;;11.61;57.06;101439.38;4955199;28;6903;-73
2023/05/25 03:20:57;;;;;;;;;;;;;;;11.61;57.26;101452.22;4955372;28;6875;-73
2023/05/25 03:23:23;;;;;;;;;;;;;;;11.60;57.00;101450.44;4955625;28;6795;-73
2023/05/25 03:25:49;;;;;;;;;;;;;;;11.60;57.06;101450.44;4945262;28;6784;-73
2023/05/25 03:28:15;;;;;;;;;;;;;;;11.57;56.80;101452.81;4983503;28;8084;-73
2023/05/25 03:30:41;;;;;;;;;;;;;;;11.57;57.12;101450.25;4978187;28;6980;-73
2023/05/25 03:33:06;;;;;;;;;;;;;;;11.60;57.87;101446.19;4954589;28;6855;-73
2023/05/25 03:35:32;;;;;;;;;;;;;;;11.63;57.59;101454.06;4983581;28;6831;-73
2023/05/25 03:37:57;;;;;;;;;;;;;;;11.67;58.32;101456.03;4986919;28;6779;-73
2023/05/25 03:40:23;;;;;;;;;;;;;;;11.72;57.67;101456.31;4981730;28;6881;-73
2023/05/25 03:42:49;;;;;;;;;;;;;;;11.78;58.14;101458.34;4973089;28;7272;-73
2023/05/25 03:45:14;;;;;;;;;;;;;;;11.80;57.79;101460.22;4953155;28;7219;-73
2023/05/25 03:47:40;;;;;;;;;;;;;;;11.86;58.20;101466.50;4968743;28;6943;-74
2023/05/25 03:50:06;;;;;;;;;;;;;;;11.88;58.03;101462.34;4980787;28;7360;-73
2023/05/25 03:52:32;;;;;;;;;;;;;;;11.90;58.46;101468.50;4958976;28;6987;-73
2023/05/25 03:55:00;;;;;;;;;;;;;;;11.93;58.29;101466.09;4955529;28;6764;-74
2023/05/25 03:57:27;;;;;;;;;;;;;;;11.95;58.29;101464.50;4936309;28;7976;-73
2023/05/25 03:59:53;;;;;;;;;;;;;;;11.99;58.44;101469.03;4949287;28;7022;-73
2023/05/25 04:02:18;;;;;;;;;;;;;;;12.02;58.67;101463.16;4982106;28;6887;-73
2023/05/25 04:04:44;;;;;;;;;;;;;;;12.05;58.52;101469.41;4988493;28;7387;-73
2023/05/25 04:07:10;;;;;;;;;;;;;;;12.10;58.11;101471.38;4983427;28;7021;-74
2023/05/25 04:09:35;;;;;;;;;;;;;;;12.14;58.25;101473.31;4963457;28;7473;-73
2023/05/25 04:12:01;;;;;;;;;;;;;;;12.17;58.38;101469.25;4952213;28;7232;-73
2023/05/25 04:14:27;;;;;;;;;;;;;;;12.24;58.47;101479.91;4964111;28;7327;-73
2023/05/25 04:16:53;;;;;;;;;;;;;;;12.29;57.99;101481.94;4942212;28;7048;-73
2023/05/25 04:19:18;;;;;;;;;;;;;;;12.35;58.45;101482.28;4959340;28;6953;-73
2023/05/25 04:21:44;;;;;;;;;;;;;;;12.46;58.41;101482.91;4957431;28;6780;-74
2023/05/25 04:24:10;;;;;;;;;;;;;;;12.62;59.52;101491.53;4967486;28;7754;-73
2023/05/25 04:26:38;;;;;;;;;;;;;;;12.76;59.03;101487.16;4955218;28;6861;-73
2023/05/25 04:29:04;;;;;;;;;;;;;;;12.93;59.52;101485.53;4985177;28;7997;-74
2023/05/25 04:31:29;;;;;;;;;;;;;;;13.10;59.60;101496.75;4948823;28;7571;-74
2023/05/25 04:33:55;;;;;;;;;;;;;;;13.25;59.42;101499.28;4956580;28;7326;-73
2023/05/25 04:36:21;;;;;;;;;;;;;;;13.39;59.10;101496.59;4988127;28;6764;-73
2023/05/25 04:38:47;;;;;;;;;;;;;;;13.56;58.97;101502.66;4970087;28;6788;-74
2023/05/25 04:41:14;;;;;;;;;;;;;;;13.71;59.32;101498.34;4981890;28;7186;-74
2023/05/25 04:43:39;;;;;;;;;;;;;;;13.85;58.70;101501.59;4949364;28;7304;-74
2023/05/25 04:46:07;;;;;;;;;;;;;;;14.01;58.98;101499.84;4953469;28;6768;-73
2023/05/25 04:48:33;;;;;;;;;;;;;;;14.16;58.79;101499.72;4971613;28;7143;-74
2023/05/25 04:51:03;;;;;;;;;;;;;;;14.34;58.08;101501.47;4958342;28;7087;-74
2023/05/25 04:53:29;;;;;;;;;;;;;;;14.50;57.84;101501.44;4983576;28;6804;-74
2023/05/25 04:55:54;;;;;;;;;;;;;;;14.65;57.73;101503.00;4978847;28;6869;-73
2023/05/25 04:58:21;;;;;;;;;;;;;;;14.81;57.55;101497.81;4974830;28;6768;-74
2023/05/25 05:00:47;;;;;;;;;;;;;;;14.99;57.25;101505.53;4953874;28;7246;-74
2023/05/25 05:03:13;;;;;;;;;;;;;;;15.19;56.95;101509.88;4974125;28;7109;-74
2023/05/25 05:05:38;;;;;;;;;;;;;;;15.38;56.93;101517.66;4967551;28;6852;-74
2023/05/25 05:08:04;;;;;;;;;;;;;;;15.58;56.54;101517.69;4955991;28;6959;-74
2023/05/25 05:10:30;;;;;;;;;;;;;;;15.75;55.98;101512.41;4956551;28;7020;-74
2023/05/25 05:12:55;;;;;;;;;;;;;;;15.91;55.68;101514.88;4975321;28;8685;-74
2023/05/25 05:15:21;;;;;;;;;;;;;;;16.09;55.47;101513.91;4982303;28;6851;-74
2023/05/25 05:17:47;;;;;;;;;;;;;;;16.25;54.97;101515.44;4952280;28;6764;-75
2023/05/25 05:20:12;;;;;;;;;;;;;;;16.42;54.58;101513.59;4976298;28;6953;-75
2023/05/25 05:22:38;;;;;;;;;;;;;;;16.60;54.17;101515.13;4956057;28;7119;-75
2023/05/25 05:25:04;;;;;;;;;;;;;;;16.72;53.77;101513.06;4954894;28;6801;-75
2023/05/25 05:27:30;;;;;;;;;;;;;;;16.82;53.42;101521.22;4988708;28;6848;-75
2023/05/25 05:29:55;;;;;;;;;;;;;;;16.92;52.98;101520.75;4975317;28;6973;-75
2023/05/25 05:32:21;;;;;;;;;;;;;;;17.04;53.28;101526.44;4957489;28;6870;-75
2023/05/25 05:34:47;;;;;;;;;;;;;;;17.20;53.18;101522.72;4987425;28;6768;-75
2023/05/25 05:37:12;;;;;;;;;;;;;;;17.35;52.92;101517.25;4958858;28;6822;-75
2023/05/25 05:39:38;;;;;;;;;;;;;;;17.48;52.21;101523.78;4985245;28;9839;-75
2023/05/25 05:42:04;;;;;;;;;;;;;;;17.61;51.97;101522.53;4985509;28;6795;-75
2023/05/25 05:44:29;;;;;;;;;;;;;;;17.76;51.89;101521.31;4956926;28;7122;-75
2023/05/25 05:46:59;;;;;;;;;;;;;;;17.82;50.94;101524.16;4952096;28;7265;-75
2023/05/25 05:49:33;;;;;;;;;;;;;;;17.77;50.10;101531.75;4953637;28;6812;-75
2023/05/25 05:51:58;;;;;;;;;;;;;;;17.71;50.35;101530.66;4968148;28;6791;-75
2023/05/25 05:54:26;;;;;;;;;;;;;;;17.64;50.12;101545.09;4957022;28;7135;-75
2023/05/25 05:56:52;;;;;;;;;;;;;;;17.54;49.83;101545.59;4958048;28;7003;-75
2023/05/25 05:59:20;;;;;;;;;;;;;;;17.43;49.62;101545.19;4984867;28;6970;-75
2023/05/25 06:01:45;;;;;;;;;;;;;;;17.34;49.86;101548.31;4981254;28;6816;-75
2023/05/25 06:04:11;;;;;;;;;;;;;;;17.25;49.75;101554.00;4989862;28;6967;-75
2023/05/25 06:06:39;;;;;;;;;;;;;;;17.15;50.00;101551.88;4958236;28;6799;-75
2023/05/25 06:09:05;;;;;;;;;;;;;;;17.06;50.01;101555.88;4975380;28;8735;-75
2023/05/25 06:11:38;;;;;;;;;;;;;;;16.96;50.09;101552.84;4952992;28;6804;-75
2023/05/25 06:14:05;;;;;;;;;;;;;;;16.84;50.46;101555.81;4974965;28;6812;-75
2023/05/25 06:16:31;;;;;;;;;;;;;;;16.78;50.86;101565.06;4974731;28;6807;-75
2023/05/25 06:18:56;;;;;;;;;;;;;;;16.74;50.97;101565.78;4974992;28;6981;-75
2023/05/25 06:21:22;;;;;;;;;;;;;;;16.69;50.88;101564.69;4956261;28;6784;-75
2023/05/25 06:23:48;;;;;;;;;;;;;;;16.69;51.17;101562.09;4936769;28;6955;-75
2023/05/25 06:26:13;;;;;;;;;;;;;;;16.70;50.93;101566.47;4954440;28;8555;-74
2023/05/25 06:28:40;;;;;;;;;;;;;;;16.76;51.48;101569.31;4984620;28;6792;-75
2023/05/25 06:31:05;;;;;;;;;;;;;;;16.81;51.40;101572.09;4954259;28;7020;-75
2023/05/25 06:33:31;;;;;;;;;;;;;;;16.85;51.24;101574.00;4981558;28;7170;-75
2023/05/25 06:35:59;;;;;;;;;;;;;;;16.91;51.88;101576.81;4988449;28;7801;-75
2023/05/25 06:38:26;;;;;;;;;;;;;;;16.97;51.24;101575.31;4974856;28;7160;-74
2023/05/25 06:40:52;;;;;;;;;;;;;;;16.96;51.42;101579.59;4975255;28;7202;-75
2023/05/25 06:43:17;;;;;;;;;;;;;;;16.95;51.35;101580.41;4948336;28;6994;-75
2023/05/25 06:45:43;;;;;;;;;;;;;;;16.96;51.41;101584.78;4978581;28;7250;-75
2023/05/25 06:48:10;;;;;;;;;;;;;;;16.99;51.73;101579.72;4993650;28;6834;-75
2023/05/25 06:50:35;;;;;;;;;;;;;;;17.05;51.63;101584.31;4987748;28;6792;-75
2023/05/25 06:53:01;;;;;;;;;;;;;;;17.11;51.94;101584.53;4977352;28;6975;-75
2023/05/25 06:55:27;;;;;;;;;;;;;;;17.24;52.29;101595.38;4975437;28;6776;-75
2023/05/25 06:57:52;;;;;;;;;;;;;;;17.38;52.14;101588.16;4944734;28;6966;-75
2023/05/25 07:00:20;;;;;;;;;;;;;;;17.57;52.12;101588.03;4957800;28;6827;-75
2023/05/25 07:02:45;;;;;;;;;;;;;;;17.79;52.04;101582.78;4954848;28;6804;-75
2023/05/25 07:05:11;;;;;;;;;;;;;;;18.07;52.04;101584.72;4985213;28;7137;-75
2023/05/25 07:07:37;;;;;;;;;;;;;;;18.36;52.24;101587.47;4960950;28;6788;-75
2023/05/25 07:10:03;;;;;;;;;;;;;;;18.73;52.30;101580.03;4953651;28;6973;-75
2023/05/25 07:12:30;;;;;;;;;;;;;;;19.10;51.27;101578.66;4953993;28;7380;-75
2023/05/25 07:14:57;;;;;;;;;;;;;;;19.38;50.47;101574.34;4991744;28;6796;-75
2023/05/25 07:17:22;;;;;;;;;;;;;;;19.61;50.51;101586.25;4987640;28;6959;-75
2023/05/25 07:19:48;;;;;;;;;;;;;;;19.81;50.36;101585.13;4990339;28;6808;-76
2023/05/25 07:22:17;;;;;;;;;;;;;;;20.07;50.00;101584.13;4989816;28;6868;-75
2023/05/25 07:24:45;;;;;;;;;;;;;;;20.34;49.47;101589.19;4985550;28;6868;-75
2023/05/25 07:27:14;;;;;;;;;;;;;;;20.59;48.89;101588.94;4990908;28;6983;-75
2023/05/25 07:29:40;;;;;;;;;;;;;;;20.79;48.11;101586.84;4960446;28;6804;-75
2023/05/25 07:32:06;;;;;;;;;;;;;;;20.95;48.00;101599.41;4985131;28;6817;-75
2023/05/25 07:34:33;;;;;;;;;;;;;;;21.08;47.48;101584.09;4986271;28;7026;-75
2023/05/25 07:36:59;;;;;;;;;;;;;;;21.21;47.12;101590.47;4976060;28;6848;-75
2023/05/25 07:39:25;;;;;;;;;;;;;;;21.36;46.84;101587.31;4962939;28;7017;-75
2023/05/25 07:41:50;;;;;;;;;;;;;;;21.53;46.86;101592.00;4985120;28;6776;-75
2023/05/25 07:44:16;;;;;;;;;;;;;;;21.60;46.10;101591.28;4986955;28;6834;-75
2023/05/25 07:46:42;;;;;;;;;;;;;;;21.78;46.29;101593.47;4955155;28;6768;-75
2023/05/25 07:49:12;;;;;;;;;;;;;;;22.06;45.99;101594.88;4984032;28;6942;-75
2023/05/25 07:51:38;;;;;;;;;;;;;;;22.33;44.92;101584.91;4957401;28;7159;-75
2023/05/25 07:54:04;;;;;;;;;;;;;;;22.57;44.55;101589.72;4941847;28;8652;-75
2023/05/25 07:56:29;;;;;;;;;;;;;;;22.79;44.29;101590.09;4975446;28;8206;-75
2023/05/25 07:58:55;;;;;;;;;;;;;;;23.01;43.90;101586.06;4990387;28;6956;-75
2023/05/25 08:01:21;;;;;;;;;;;;;;;23.28;43.47;101595.22;4950249;28;7140;-75
2023/05/25 08:03:47;;;;;;;;;;;;;;;23.57;42.98;101589.50;4993427;28;6992;-73
2023/05/25 08:06:13;;;;;;;;;;;;;;;23.83;42.48;101593.28;4955139;28;6784;-74
2023/05/25 08:08:40;;;;;;;;;;;;;;;24.04;41.84;101594.38;4951910;28;6779;-73
2023/05/25 08:11:06;;;;;;;;;;;;;;;24.09;41.45;101595.38;4954080;28;6963;-73
2023/05/25 08:13:32;;;;;;;;;;;;;;;23.97;40.42;101591.72;4984830;28;6845;-73
2023/05/25 08:15:57;;;;;;;;;;;;;;;23.74;39.97;101598.41;4944851;28;7528;-73
2023/05/25 08:18:23;;;;;;;;;;;;;;;23.45;40.04;101594.56;4988347;28;6780;-74
2023/05/25 08:20:49;;;;;;;;;;;;;;;23.38;40.73;101598.84;4985992;28;7508;-73
2023/05/25 08:23:14;;;;;;;;;;;;;;;23.44;40.76;101595.44;4986664;28;6946;-73
2023/05/25 08:25:40;;;;;;;;;;;;;;;23.36;39.72;101594.44;4984782;28;7366;-73
2023/05/25 08:28:06;;;;;;;;;;;;;;;23.12;40.00;101591.47;4954126;28;6784;-73
2023/05/25 08:30:32;;;;;;;;;;;;;;;22.91;39.29;101597.22;4971313;28;6950;-73
2023/05/25 08:32:58;;;;;;;;;;;;;;;22.83;39.80;101599.75;4984962;28;6796;-74
2023/05/25 08:35:24;;;;;;;;;;;;;;;22.88;39.55;101594.59;4986138;28;6787;-73
2023/05/25 08:37:49;;;;;;;;;;;;;;;23.16;39.82;101602.84;4953299;28;7228;-74
2023/05/25 08:40:17;;;;;;;;;;;;;;;23.68;40.28;101602.72;4956221;28;6780;-74
2023/05/25 08:42:44;;;;;;;;;;;;;;;24.22;39.15;101599.00;4948706;28;7011;-74
2023/05/25 08:45:11;;;;;;;;;;;;;;;24.31;38.67;101603.44;4954148;28;6800;-74
2023/05/25 08:47:42;;;;;;;;;;;;;;;24.04;37.89;101597.94;4983728;28;7071;-74
2023/05/25 08:50:10;;;;;;;;;;;;;;;23.62;38.14;101601.78;4953762;28;6800;-73
2023/05/25 08:52:39;;;;;;;;;;;;;;;23.23;38.03;101598.59;4971406;28;6802;-73
2023/05/25 08:55:08;;;;;;;;;;;;;;;23.01;38.65;101598.28;4967104;28;7339;-74
2023/05/25 08:57:54;;;;;;;;;;;;;;;23.12;38.50;101599.31;4956152;28;6992;-73
2023/05/25 09:00:25;;;;;;;;;;;;;;;23.36;38.38;101595.31;4956359;28;6803;-74
2023/05/25 09:03:14;;;;;;;;;;;;;;;23.87;38.55;101592.47;4974323;28;6772;-73
2023/05/25 09:05:41;;;;;;;;;;;;;;;24.34;38.04;101593.88;4966986;28;6959;-74
2023/05/25 09:08:07;;;;;;;;;;;;;;;24.38;36.97;101597.41;4983958;28;7196;-74
2023/05/25 09:10:39;;;;;;;;;;;;;;;24.09;36.61;101593.59;4957487;28;6788;-74
2023/05/25 09:13:06;;;;;;;;;;;;;;;23.77;36.88;101596.72;4987263;28;6887;-74
2023/05/25 09:15:32;;;;;;;;;;;;;;;23.94;37.68;101596.91;4957381;28;7004;-73
2023/05/25 09:17:58;;;;;;;;;;;;;;;24.51;37.82;101590.53;4941593;28;6991;-74
2023/05/25 09:20:30;;;;;;;;;;;;;;;25.22;36.74;101588.44;4971747;28;6932;-73
2023/05/25 09:22:57;;;;;;;;;;;;;;;25.50;35.26;101590.41;4946599;28;6987;-74
2023/05/25 09:25:26;;;;;;;;;;;;;;;25.30;35.24;101595.50;4989336;28;6800;-74
2023/05/25 09:27:53;;;;;;;;;;;;;;;25.30;35.45;101592.88;4977685;28;7252;-74
2023/05/25 09:30:18;;;;;;;;;;;;;;;25.70;35.30;101593.09;4987281;28;6883;-74
2023/05/25 09:32:44;;;;;;;;;;;;;;;26.25;34.75;101591.53;4986440;28;8014;-74
2023/05/25 09:35:14;;;;;;;;;;;;;;;26.66;33.88;101586.28;4986713;28;6958;-74
2023/05/25 09:37:42;;;;;;;;;;;;;;;26.69;33.68;101591.53;4985835;28;6931;-74
2023/05/25 09:40:09;;;;;;;;;;;;;;;26.50;33.27;101595.94;4961136;28;7216;-74
2023/05/25 09:42:36;;;;;;;;;;;;;;;26.03;32.89;101598.44;4953198;28;6788;-74
2023/05/25 09:45:04;;;;;;;;;;;;;;;25.64;33.30;101601.81;4956146;28;8796;-74
2023/05/25 09:47:29;;;;;;;;;;;;;;;25.71;33.62;101601.84;4978701;28;7003;-74
2023/05/25 09:49:56;;;;;;;;;;;;;;;25.95;33.80;101592.28;4993576;28;7642;-74
2023/05/25 09:52:23;;;;;;;;;;;;;;;26.40;33.69;101595.03;4990690;28;6820;-74
2023/05/25 09:54:50;;;;;;;;;;;;;;;26.96;33.04;101590.69;4963502;28;6792;-74
2023/05/25 09:57:19;;;;;;;;;;;;;;;27.39;32.46;101597.59;4985576;28;6784;-74
2023/05/25 09:59:46;;;;;;;;;;;;;;;27.76;31.54;101593.94;4960906;28;7301;-74
2023/05/25 10:02:14;;;;;;;;;;;;;;;28.05;31.54;101600.81;4960029;28;6999;-74
2023/05/25 10:04:40;;;;;;;;;;;;;;;28.39;31.23;101600.63;4950578;28;7621;-74
2023/05/25 10:07:06;;;;;;;;;;;;;;;28.56;30.69;101599.59;4970380;28;7147;-74
2023/05/25 10:09:40;;;;;;;;;;;;;;;28.39;30.37;101594.47;4969561;28;7262;-74
2023/05/25 10:12:07;;;;;;;;;;;;;;;28.34;30.50;101597.13;4964478;28;7399;-74
2023/05/25 10:14:36;;;;;;;;;;;;;;;28.55;30.56;101595.22;4956166;28;6879;-74
2023/05/25 10:17:05;;;;;;;;;;;;;;;28.65;29.63;101596.88;4981782;28;7428;-74
2023/05/25 10:19:53;;;;;;;;;;;;;;;28.25;29.65;101594.56;4961381;28;7011;-74
2023/05/25 10:22:25;;;;;;;;;;;;;;;27.81;29.84;101597.41;4962437;28;6880;-74
2023/05/25 10:25:05;;;;;;;;;;;;;;;27.52;30.37;101598.41;4959929;28;6939;-74
2023/05/25 10:27:45;;;;;;;;;;;;;;;27.67;30.87;101610.69;4962005;28;6827;-74
2023/05/25 10:30:13;;;;;;;;;;;;;;;27.88;30.14;101586.88;4947766;28;6981;-74
2023/05/25 10:32:41;;;;;;;;;;;;;;;28.06;30.31;101597.28;4967048;28;6800;-75
2023/05/25 10:35:08;;;;;;;;;;;;;;;28.06;29.88;101597.28;4982934;28;7029;-75
2023/05/25 10:37:35;;;;;;;;;;;;;;;28.04;30.10;101600.81;4979522;28;6950;-78
2023/05/25 10:40:05;;;;;;;;;;;;;;;28.09;29.95;101602.53;4994752;28;6808;-78
2023/05/25 10:42:33;;;;;;;;;;;;;;;28.31;29.29;101598.91;4963483;28;7325;-77
2023/05/25 10:44:59;;;;;;;;;;;;;;;28.42;29.16;101600.59;4992225;28;7256;-77
2023/05/25 10:47:26;;;;;;;;;;;;;;;28.40;29.13;101597.09;4987581;28;6799;-73
2023/05/25 10:50:00;;;;;;;;;;;;;;;28.52;29.61;101600.53;4947408;28;6966;-78
2023/05/25 10:52:28;;;;;;;;;;;;;;;28.69;29.72;101600.38;4994642;28;6942;-78
2023/05/25 10:55:04;;;;;;;;;;;;;;;28.45;28.58;101606.72;4961898;28;6792;-79
2023/05/25 10:57:29;;;;;;;;;;;;;;;27.98;29.22;101592.09;4959989;28;6835;-78
2023/05/25 11:00:07;;;;;;;;;;;;;;;27.85;29.60;101596.53;4963421;28;6784;-78
2023/05/25 11:02:54;;;;;;;;;;;;;;;28.00;29.12;101594.69;4959714;28;6816;-76
2023/05/25 11:05:25;;;;;;;;;;;;;;;28.15;28.54;101598.97;4990977;28;6807;-78
2023/05/25 11:08:03;;;;;;;;;;;;;;;28.17;29.01;101605.16;4962836;28;7195;-77
2023/05/25 11:10:47;;;;;;;;;;;;;;;28.32;28.96;101609.47;4961769;28;6831;-77
2023/05/25 11:13:38;;;;;;;;;;;;;;;28.25;28.35;101602.47;4962494;28;6800;-77
2023/05/25 11:16:25;;;;;;;;;;;;;;;28.01;28.47;101604.38;4988881;28;7209;-77
2023/05/25 11:18:57;;;;;;;;;;;;;;;27.77;29.01;101600.97;4959258;28;6812;-78
2023/05/25 11:21:26;;;;;;;;;;;;;;;27.57;28.88;101601.03;4956886;28;7206;-77
2023/05/25 11:24:09;;;;;;;;;;;;;;;27.28;29.13;101604.63;4963304;28;6967;-76
2023/05/25 11:26:35;;;;;;;;;;;;;;;26.92;29.91;101607.31;4993235;28;6807;-77
2023/05/25 11:29:13;;;;;;;;;;;;;;;26.66;30.04;101613.47;4955699;28;7071;-77
2023/05/25 11:31:38;;;;;;;;;;;;;;;26.30;30.09;101610.78;4963319;28;7006;-74
2023/05/25 11:34:04;;;;;;;;;;;;;;;26.13;30.45;101610.72;4960334;28;6860;-77
2023/05/25 11:36:33;;;;;;;;;;;;;;;25.95;30.52;101603.69;4980056;28;6949;-74
2023/05/25 11:39:01;;;;;;;;;;;;;;;25.70;30.74;101605.34;4981234;28;6874;-77
2023/05/25 11:41:32;;;;;;;;;;;;;;;25.52;31.20;101600.00;4961028;28;6811;-78
2023/05/25 11:44:05;;;;;;;;;;;;;;;25.48;31.49;101592.97;4966268;28;6808;-76
2023/05/25 11:46:33;;;;;;;;;;;;;;;25.39;31.70;101595.56;4960915;28;6792;-79
2023/05/25 11:49:00;;;;;;;;;;;;;;;25.08;31.26;101601.47;4971632;28;6835;-77
2023/05/25 11:51:28;;;;;;;;;;;;;;;24.92;32.21;101603.13;4988483;28;6784;-78
2023/05/25 11:53:55;;;;;;;;;;;;;;;25.11;32.12;101592.75;4960607;28;6811;-77
2023/05/25 11:56:21;;;;;;;;;;;;;;;25.16;31.62;101598.94;4964529;28;7190;-76
2023/05/25 11:58:49;;;;;;;;;;;;;;;25.07;31.93;101597.09;4956362;28;7018;-76
2023/05/25 12:01:22;;;;;;;;;;;;;;;25.27;32.06;101593.72;4959676;28;6800;-77
2023/05/25 12:03:54;;;;;;;;;;;;;;;25.62;31.80;101594.81;4992016;28;7856;-75
2023/05/25 12:06:35;;;;;;;;;;;;;;;25.59;31.43;101590.44;4954971;28;6823;-76
2023/05/25 12:09:07;;;;;;;;;;;;;;;25.26;31.64;101591.13;4955894;28;6884;-73
2023/05/25 12:11:35;;;;;;;;;;;;;;;25.02;32.01;101590.06;4993516;28;7402;-76
2023/05/25 12:14:03;;;;;;;;;;;;;;;25.16;32.29;101592.78;4993030;28;6820;-77
2023/05/25 12:16:31;;;;;;;;;;;;;;;25.57;32.34;101594.78;4946648;28;7001;-76
2023/05/25 12:18:57;;;;;;;;;;;;;;;26.02;31.40;101591.44;4962140;28;6784;-77
2023/05/25 12:21:23;;;;;;;;;;;;;;;26.29;31.52;101590.63;4989986;28;6982;-77
2023/05/25 12:23:50;;;;;;;;;;;;;;;26.10;31.02;101594.97;4959810;28;6784;-77
2023/05/25 12:26:17;;;;;;;;;;;;;;;25.64;31.18;101586.06;4957705;28;6951;-77
2023/05/25 12:29:00;;;;;;;;;;;;;;;25.26;31.98;101581.47;4986695;28;7034;-73
2023/05/25 12:31:33;;;;;;;;;;;;;;;25.31;31.94;101585.03;4952584;28;7007;-75
2023/05/25 12:34:13;;;;;;;;;;;;;;;25.69;32.02;101586.09;4946627;28;7070;-77
2023/05/25 12:36:47;;;;;;;;;;;;;;;26.11;31.80;101590.56;4959428;28;7142;-75
2023/05/25 12:39:30;;;;;;;;;;;;;;;26.42;31.71;101583.66;4962005;28;10175;-75
2023/05/25 12:41:58;;;;;;;;;;;;;;;26.70;31.00;101574.88;4974473;28;6999;-72
2023/05/25 12:44:32;;;;;;;;;;;;;;;26.86;30.59;101576.63;4956617;28;6892;-74
2023/05/25 12:47:23;;;;;;;;;;;;;;;27.06;30.19;101574.88;4981750;28;6816;-74
2023/05/25 12:50:13;;;;;;;;;;;;;;;27.31;30.09;101573.91;4978890;28;7272;-73
2023/05/25 12:52:42;;;;;;;;;;;;;;;27.65;30.12;101569.44;4962942;28;7405;-73